Old Brazoria, Texas
Current Conditions -  °F | °C
As of 4:53 PM on Saturday 25 Oct 2014 (Local Time) from KLBX Reporting Station
Clear Clear  
Wind Chill: 80°   Ceiling: Unl
Heat Index: 81°   Visibility: 10mi
Dew Point: 59°   Wind: 9mph
Humidity: 48%   Direction: 120°ESE
Pressure: 30.1"   Gusts: NA
Location:  28.9272°N, 95.5834°W
Report Text: KLBX 252153Z AUTO 12008KT 10SM CLR 27/15 A3010 RMK AO2 SLP192 T02670150
Loading
Personal Weather Stations






























Interactive Weather Map
Tropical Storm Tracking
New forecast layout! Learn more

10-Day Weather Forecast

Advertisements
Track Severe Weather on mobile